sensor_id;sensor_type;location;lat;lon;timestamp;temperature;humidity
7814;DHT22;3952;48.364;16.022;2023-02-15T00:00:13;3.90;99.90
7814;DHT22;3952;48.364;16.022;2023-02-15T00:02:40;3.90;99.90
7814;DHT22;3952;48.364;16.022;2023-02-15T00:05:08;4.00;99.90
7814;DHT22;3952;48.364;16.022;2023-02-15T00:07:35;4.00;99.90
7814;DHT22;3952;48.364;16.022;2023-02-15T00:10:04;4.00;99.90
7814;DHT22;3952;48.364;16.022;2023-02-15T00:12:45;3.90;99.90
7814;DHT22;3952;48.364;16.022;2023-02-15T00:15:15;4.00;99.90
7814;DHT22;3952;48.364;16.022;2023-02-15T00:17:42;3.90;99.90
7814;DHT22;3952;48.364;16.022;2023-02-15T00:20:10;3.90;99.90
7814;DHT22;3952;48.364;16.022;2023-02-15T00:22:37;3.90;99.90
7814;DHT22;3952;48.364;16.022;2023-02-15T00:25:05;3.90;99.90
7814;DHT22;3952;48.364;16.022;2023-02-15T00:27:33;3.90;99.90
7814;DHT22;3952;48.364;16.022;2023-02-15T00:30:02;3.90;99.90
7814;DHT22;3952;48.364;16.022;2023-02-15T00:32:29;3.90;99.90
7814;DHT22;3952;48.364;16.022;2023-02-15T00:34:57;3.90;99.90
7814;DHT22;3952;48.364;16.022;2023-02-15T00:37:24;3.90;99.90
7814;DHT22;3952;48.364;16.022;2023-02-15T00:39:51;4.00;99.90
7814;DHT22;3952;48.364;16.022;2023-02-15T00:42:28;4.00;99.90
7814;DHT22;3952;48.364;16.022;2023-02-15T00:44:55;4.00;99.90
7814;DHT22;3952;48.364;16.022;2023-02-15T00:47:23;4.00;99.90
7814;DHT22;3952;48.364;16.022;2023-02-15T00:49:54;4.00;99.90
7814;DHT22;3952;48.364;16.022;2023-02-15T00:52:32;4.00;99.90
7814;DHT22;3952;48.364;16.022;2023-02-15T00:54:59;4.00;99.90
7814;DHT22;3952;48.364;16.022;2023-02-15T00:57:26;4.00;99.90
7814;DHT22;3952;48.364;16.022;2023-02-15T00:59:54;4.20;99.90
7814;DHT22;3952;48.364;16.022;2023-02-15T01:02:22;4.10;99.90
7814;DHT22;3952;48.364;16.022;2023-02-15T01:04:50;4.00;99.90
7814;DHT22;3952;48.364;16.022;2023-02-15T01:07:20;4.00;99.90
7814;DHT22;3952;48.364;16.022;2023-02-15T01:09:47;3.90;99.90
7814;DHT22;3952;48.364;16.022;2023-02-15T01:12:14;3.90;99.90
7814;DHT22;3952;48.364;16.022;2023-02-15T01:14:50;3.80;99.90
7814;DHT22;3952;48.364;16.022;2023-02-15T01:17:18;3.80;99.90
7814;DHT22;3952;48.364;16.022;2023-02-15T01:19:47;3.80;99.90
7814;DHT22;3952;48.364;16.022;2023-02-15T01:22:14;3.80;99.90
7814;DHT22;3952;48.364;16.022;2023-02-15T01:24:41;3.80;99.90
7814;DHT22;3952;48.364;16.022;2023-02-15T01:27:09;3.80;99.90
7814;DHT22;3952;48.364;16.022;2023-02-15T01:29:36;3.80;99.90
7814;DHT22;3952;48.364;16.022;2023-02-15T01:32:03;3.80;99.90
7814;DHT22;3952;48.364;16.022;2023-02-15T01:34:31;3.80;99.90
7814;DHT22;3952;48.364;16.022;2023-02-15T01:37:00;3.80;99.90
7814;DHT22;3952;48.364;16.022;2023-02-15T01:39:27;3.80;99.90
7814;DHT22;3952;48.364;16.022;2023-02-15T01:41:54;3.80;99.90
7814;DHT22;3952;48.364;16.022;2023-02-15T01:44:45;3.80;99.90
7814;DHT22;3952;48.364;16.022;2023-02-15T01:47:15;3.80;99.90
7814;DHT22;3952;48.364;16.022;2023-02-15T01:49:44;3.80;99.90
7814;DHT22;3952;48.364;16.022;2023-02-15T01:52:16;3.70;99.90
7814;DHT22;3952;48.364;16.022;2023-02-15T01:54:45;3.70;99.90
7814;DHT22;3952;48.364;16.022;2023-02-15T01:57:16;3.70;99.90
7814;DHT22;3952;48.364;16.022;2023-02-15T01:59:47;3.70;99.90
7814;DHT22;3952;48.364;16.022;2023-02-15T02:02:17;3.70;99.90
7814;DHT22;3952;48.364;16.022;2023-02-15T02:04:48;3.70;99.90
7814;DHT22;3952;48.364;16.022;2023-02-15T02:07:20;3.60;99.90
7814;DHT22;3952;48.364;16.022;2023-02-15T02:09:48;3.60;99.90
7814;DHT22;3952;48.364;16.022;2023-02-15T02:12:16;3.60;99.90
7814;DHT22;3952;48.364;16.022;2023-02-15T02:14:45;3.60;99.90
7814;DHT22;3952;48.364;16.022;2023-02-15T02:17:16;3.60;99.90
7814;DHT22;3952;48.364;16.022;2023-02-15T02:20:28;3.60;99.90
7814;DHT22;3952;48.364;16.022;2023-02-15T02:29:33;3.70;99.90
7814;DHT22;3952;48.364;16.022;2023-02-15T02:32:28;3.60;99.90
7814;DHT22;3952;48.364;16.022;2023-02-15T02:35:05;3.50;99.90
7814;DHT22;3952;48.364;16.022;2023-02-15T02:37:43;3.50;99.90
7814;DHT22;3952;48.364;16.022;2023-02-15T02:40:19;3.50;99.90
7814;DHT22;3952;48.364;16.022;2023-02-15T02:42:52;3.50;99.90
7814;DHT22;3952;48.364;16.022;2023-02-15T02:45:26;3.50;99.90
7814;DHT22;3952;48.364;16.022;2023-02-15T02:48:00;3.50;99.90
7814;DHT22;3952;48.364;16.022;2023-02-15T02:50:33;3.50;99.90
7814;DHT22;3952;48.364;16.022;2023-02-15T02:53:00;3.50;99.90
7814;DHT22;3952;48.364;16.022;2023-02-15T02:55:30;3.50;99.90
7814;DHT22;3952;48.364;16.022;2023-02-15T02:58:02;3.50;99.90
7814;DHT22;3952;48.364;16.022;2023-02-15T03:00:32;3.50;99.90
7814;DHT22;3952;48.364;16.022;2023-02-15T03:03:05;3.50;99.90
7814;DHT22;3952;48.364;16.022;2023-02-15T03:05:39;3.50;99.90
7814;DHT22;3952;48.364;16.022;2023-02-15T03:08:08;3.50;99.90
7814;DHT22;3952;48.364;16.022;2023-02-15T03:10:37;3.50;99.90
7814;DHT22;3952;48.364;16.022;2023-02-15T03:13:05;3.50;99.90
7814;DHT22;3952;48.364;16.022;2023-02-15T03:15:37;3.50;99.90
7814;DHT22;3952;48.364;16.022;2023-02-15T03:18:28;3.50;99.90
7814;DHT22;3952;48.364;16.022;2023-02-15T03:21:01;3.50;99.90
7814;DHT22;3952;48.364;16.022;2023-02-15T03:23:31;3.50;99.90
7814;DHT22;3952;48.364;16.022;2023-02-15T03:26:02;3.40;99.90
7814;DHT22;3952;48.364;16.022;2023-02-15T03:28:33;3.40;99.90
7814;DHT22;3952;48.364;16.022;2023-02-15T03:31:05;3.50;99.90
7814;DHT22;3952;48.364;16.022;2023-02-15T03:33:36;3.50;99.90
7814;DHT22;3952;48.364;16.022;2023-02-15T03:36:09;3.50;99.90
7814;DHT22;3952;48.364;16.022;2023-02-15T03:38:53;3.50;99.90
7814;DHT22;3952;48.364;16.022;2023-02-15T03:41:27;2.30;99.90
7814;DHT22;3952;48.364;16.022;2023-02-15T03:44:03;4.00;99.90
7814;DHT22;3952;48.364;16.022;2023-02-15T03:46:37;3.50;99.90
7814;DHT22;3952;48.364;16.022;2023-02-15T03:49:09;3.50;99.90
7814;DHT22;3952;48.364;16.022;2023-02-15T03:51:42;3.50;99.90
7814;DHT22;3952;48.364;16.022;2023-02-15T03:54:12;3.50;99.90
7814;DHT22;3952;48.364;16.022;2023-02-15T03:57:01;3.40;99.90
7814;DHT22;3952;48.364;16.022;2023-02-15T03:59:42;3.40;99.90
7814;DHT22;3952;48.364;16.022;2023-02-15T04:02:30;3.40;99.90
7814;DHT22;3952;48.364;16.022;2023-02-15T04:05:00;3.30;99.90
7814;DHT22;3952;48.364;16.022;2023-02-15T04:07:29;3.20;99.90
7814;DHT22;3952;48.364;16.022;2023-02-15T04:09:57;3.20;99.90
7814;DHT22;3952;48.364;16.022;2023-02-15T04:12:41;3.20;99.90
7814;DHT22;3952;48.364;16.022;2023-02-15T04:15:12;3.20;99.90
7814;DHT22;3952;48.364;16.022;2023-02-15T04:17:57;3.20;99.90
7814;DHT22;3952;48.364;16.022;2023-02-15T04:20:26;3.20;99.90
7814;DHT22;3952;48.364;16.022;2023-02-15T04:23:12;3.20;99.90
7814;DHT22;3952;48.364;16.022;2023-02-15T04:25:57;3.20;99.90
7814;DHT22;3952;48.364;16.022;2023-02-15T04:28:25;3.20;99.90
7814;DHT22;3952;48.364;16.022;2023-02-15T04:30:52;3.20;99.90
7814;DHT22;3952;48.364;16.022;2023-02-15T04:33:19;3.20;99.90
7814;DHT22;3952;48.364;16.022;2023-02-15T04:35:46;3.20;99.90
7814;DHT22;3952;48.364;16.022;2023-02-15T04:38:15;3.30;99.90
7814;DHT22;3952;48.364;16.022;2023-02-15T04:40:42;3.20;99.90
7814;DHT22;3952;48.364;16.022;2023-02-15T04:43:09;3.30;99.90
7814;DHT22;3952;48.364;16.022;2023-02-15T04:45:37;3.30;99.90
7814;DHT22;3952;48.364;16.022;2023-02-15T04:48:04;3.30;99.90
7814;DHT22;3952;48.364;16.022;2023-02-15T04:50:31;3.30;99.90
7814;DHT22;3952;48.364;16.022;2023-02-15T04:52:59;3.30;99.90
7814;DHT22;3952;48.364;16.022;2023-02-15T04:55:28;3.30;99.90
7814;DHT22;3952;48.364;16.022;2023-02-15T04:57:55;3.30;99.90
7814;DHT22;3952;48.364;16.022;2023-02-15T05:00:22;3.80;99.90
7814;DHT22;3952;48.364;16.022;2023-02-15T05:02:50;3.30;99.90
7814;DHT22;3952;48.364;16.022;2023-02-15T05:05:17;3.20;99.90
7814;DHT22;3952;48.364;16.022;2023-02-15T05:07:44;3.20;99.90
7814;DHT22;3952;48.364;16.022;2023-02-15T05:10:12;3.20;99.90
7814;DHT22;3952;48.364;16.022;2023-02-15T05:12:40;3.20;99.90
7814;DHT22;3952;48.364;16.022;2023-02-15T05:15:08;3.20;99.90
7814;DHT22;3952;48.364;16.022;2023-02-15T05:17:36;3.30;99.90
7814;DHT22;3952;48.364;16.022;2023-02-15T05:20:07;3.30;99.90
7814;DHT22;3952;48.364;16.022;2023-02-15T05:22:34;3.20;99.90
7814;DHT22;3952;48.364;16.022;2023-02-15T05:25:01;3.20;99.90
7814;DHT22;3952;48.364;16.022;2023-02-15T05:27:47;3.20;99.90
7814;DHT22;3952;48.364;16.022;2023-02-15T05:30:32;3.10;99.90
7814;DHT22;3952;48.364;16.022;2023-02-15T05:32:59;3.10;99.90
7814;DHT22;3952;48.364;16.022;2023-02-15T05:35:26;3.10;99.90
7814;DHT22;3952;48.364;16.022;2023-02-15T05:37:54;3.10;99.90
7814;DHT22;3952;48.364;16.022;2023-02-15T05:40:21;3.10;99.90
7814;DHT22;3952;48.364;16.022;2023-02-15T05:42:50;3.10;99.90
7814;DHT22;3952;48.364;16.022;2023-02-15T05:45:17;3.20;99.90
7814;DHT22;3952;48.364;16.022;2023-02-15T05:47:44;3.20;99.90
7814;DHT22;3952;48.364;16.022;2023-02-15T05:50:12;3.20;99.90
7814;DHT22;3952;48.364;16.022;2023-02-15T05:52:39;3.20;99.90
7814;DHT22;3952;48.364;16.022;2023-02-15T05:55:07;3.10;99.90
7814;DHT22;3952;48.364;16.022;2023-02-15T05:57:35;3.10;99.90
7814;DHT22;3952;48.364;16.022;2023-02-15T06:00:05;3.10;99.90
7814;DHT22;3952;48.364;16.022;2023-02-15T06:02:34;3.00;99.90
7814;DHT22;3952;48.364;16.022;2023-02-15T06:05:01;3.00;99.90
7814;DHT22;3952;48.364;16.022;2023-02-15T06:07:29;3.00;99.90
7814;DHT22;3952;48.364;16.022;2023-02-15T06:09:56;2.90;99.90
7814;DHT22;3952;48.364;16.022;2023-02-15T06:12:24;3.00;99.90
7814;DHT22;3952;48.364;16.022;2023-02-15T06:14:51;3.00;99.90
7814;DHT22;3952;48.364;16.022;2023-02-15T06:17:21;3.00;99.90
7814;DHT22;3952;48.364;16.022;2023-02-15T06:20:20;3.00;99.90
7814;DHT22;3952;48.364;16.022;2023-02-15T06:22:47;3.00;99.90
7814;DHT22;3952;48.364;16.022;2023-02-15T06:25:15;3.00;99.90
7814;DHT22;3952;48.364;16.022;2023-02-15T06:27:42;3.00;99.90
7814;DHT22;3952;48.364;16.022;2023-02-15T06:30:12;2.90;99.90
7814;DHT22;3952;48.364;16.022;2023-02-15T06:32:40;2.90;99.90
7814;DHT22;3952;48.364;16.022;2023-02-15T06:35:08;2.90;99.90
7814;DHT22;3952;48.364;16.022;2023-02-15T06:37:36;2.90;99.90
7814;DHT22;3952;48.364;16.022;2023-02-15T06:40:05;2.90;99.90
7814;DHT22;3952;48.364;16.022;2023-02-15T06:42:34;2.90;99.90
7814;DHT22;3952;48.364;16.022;2023-02-15T06:45:01;2.80;99.90
7814;DHT22;3952;48.364;16.022;2023-02-15T06:47:28;2.80;99.90
7814;DHT22;3952;48.364;16.022;2023-02-15T06:49:57;2.80;99.90
7814;DHT22;3952;48.364;16.022;2023-02-15T06:52:25;2.80;99.90
7814;DHT22;3952;48.364;16.022;2023-02-15T06:55:13;2.80;99.90
7814;DHT22;3952;48.364;16.022;2023-02-15T06:57:41;2.80;99.90
7814;DHT22;3952;48.364;16.022;2023-02-15T07:00:10;2.80;99.90
7814;DHT22;3952;48.364;16.022;2023-02-15T07:02:38;2.80;99.90
7814;DHT22;3952;48.364;16.022;2023-02-15T07:05:07;2.70;99.90
7814;DHT22;3952;48.364;16.022;2023-02-15T07:07:34;2.70;99.90
7814;DHT22;3952;48.364;16.022;2023-02-15T07:10:02;2.70;99.90
7814;DHT22;3952;48.364;16.022;2023-02-15T07:12:32;2.80;99.90
7814;DHT22;3952;48.364;16.022;2023-02-15T07:15:08;2.80;99.90
7814;DHT22;3952;48.364;16.022;2023-02-15T07:17:37;2.80;99.90
7814;DHT22;3952;48.364;16.022;2023-02-15T07:20:09;2.80;99.90
7814;DHT22;3952;48.364;16.022;2023-02-15T07:22:37;2.80;99.90
7814;DHT22;3952;48.364;16.022;2023-02-15T07:25:08;2.80;99.90
7814;DHT22;3952;48.364;16.022;2023-02-15T07:27:36;2.80;99.90
7814;DHT22;3952;48.364;16.022;2023-02-15T07:30:11;2.80;99.90
7814;DHT22;3952;48.364;16.022;2023-02-15T07:32:39;2.90;99.90
7814;DHT22;3952;48.364;16.022;2023-02-15T07:41:25;2.90;99.90
7814;DHT22;3952;48.364;16.022;2023-02-15T07:43:53;2.90;99.90
7814;DHT22;3952;48.364;16.022;2023-02-15T07:46:20;2.90;99.90
7814;DHT22;3952;48.364;16.022;2023-02-15T07:48:48;2.90;99.90
7814;DHT22;3952;48.364;16.022;2023-02-15T07:51:15;2.90;99.90
7814;DHT22;3952;48.364;16.022;2023-02-15T07:53:44;2.90;99.90
7814;DHT22;3952;48.364;16.022;2023-02-15T07:56:13;2.90;99.90
7814;DHT22;3952;48.364;16.022;2023-02-15T07:58:41;2.90;99.90
7814;DHT22;3952;48.364;16.022;2023-02-15T08:01:19;2.90;99.90
7814;DHT22;3952;48.364;16.022;2023-02-15T08:03:47;2.90;99.90
7814;DHT22;3952;48.364;16.022;2023-02-15T08:06:14;3.00;99.90
7814;DHT22;3952;48.364;16.022;2023-02-15T08:08:43;3.10;99.90
7814;DHT22;3952;48.364;16.022;2023-02-15T08:11:16;3.10;99.90
7814;DHT22;3952;48.364;16.022;2023-02-15T08:14:00;3.20;99.90
7814;DHT22;3952;48.364;16.022;2023-02-15T08:16:31;3.20;99.90
7814;DHT22;3952;48.364;16.022;2023-02-15T08:19:11;3.30;99.90
7814;DHT22;3952;48.364;16.022;2023-02-15T08:21:40;3.30;99.90
7814;DHT22;3952;48.364;16.022;2023-02-15T08:24:10;3.30;99.90
7814;DHT22;3952;48.364;16.022;2023-02-15T08:26:39;3.30;99.90
7814;DHT22;3952;48.364;16.022;2023-02-15T08:29:08;3.40;99.90
7814;DHT22;3952;48.364;16.022;2023-02-15T08:31:36;3.40;99.90
7814;DHT22;3952;48.364;16.022;2023-02-15T08:34:08;3.60;99.90
7814;DHT22;3952;48.364;16.022;2023-02-15T08:36:36;3.40;99.90
7814;DHT22;3952;48.364;16.022;2023-02-15T08:39:05;3.40;99.90
7814;DHT22;3952;48.364;16.022;2023-02-15T08:41:36;3.40;99.90
7814;DHT22;3952;48.364;16.022;2023-02-15T08:44:05;3.30;99.90
7814;DHT22;3952;48.364;16.022;2023-02-15T08:46:35;3.30;99.90
7814;DHT22;3952;48.364;16.022;2023-02-15T08:49:03;3.40;99.90
7814;DHT22;3952;48.364;16.022;2023-02-15T08:51:32;3.40;99.90
7814;DHT22;3952;48.364;16.022;2023-02-15T08:54:01;3.50;99.90
7814;DHT22;3952;48.364;16.022;2023-02-15T08:56:31;3.50;99.90
7814;DHT22;3952;48.364;16.022;2023-02-15T08:59:01;3.60;99.90
7814;DHT22;3952;48.364;16.022;2023-02-15T09:01:30;3.60;99.90
7814;DHT22;3952;48.364;16.022;2023-02-15T09:03:59;3.60;99.90
7814;DHT22;3952;48.364;16.022;2023-02-15T09:06:27;3.60;99.90
7814;DHT22;3952;48.364;16.022;2023-02-15T09:08:56;3.50;99.90
7814;DHT22;3952;48.364;16.022;2023-02-15T09:11:24;3.50;99.90
7814;DHT22;3952;48.364;16.022;2023-02-15T09:13:54;3.50;99.90
7814;DHT22;3952;48.364;16.022;2023-02-15T09:16:24;3.60;99.90
7814;DHT22;3952;48.364;16.022;2023-02-15T09:18:55;3.70;99.90
7814;DHT22;3952;48.364;16.022;2023-02-15T09:21:29;3.70;99.90
7814;DHT22;3952;48.364;16.022;2023-02-15T09:23:58;3.80;99.90
7814;DHT22;3952;48.364;16.022;2023-02-15T09:26:28;4.60;99.90
7814;DHT22;3952;48.364;16.022;2023-02-15T09:28:58;3.90;99.90
7814;DHT22;3952;48.364;16.022;2023-02-15T09:31:32;3.90;99.90
7814;DHT22;3952;48.364;16.022;2023-02-15T09:34:00;3.90;99.90
7814;DHT22;3952;48.364;16.022;2023-02-15T09:36:30;3.90;99.90
7814;DHT22;3952;48.364;16.022;2023-02-15T09:39:00;3.80;99.90
7814;DHT22;3952;48.364;16.022;2023-02-15T09:45:00;3.90;99.90
7814;DHT22;3952;48.364;16.022;2023-02-15T09:47:53;4.00;99.90
7814;DHT22;3952;48.364;16.022;2023-02-15T09:50:30;4.00;99.90
7814;DHT22;3952;48.364;16.022;2023-02-15T09:53:14;4.00;99.90
7814;DHT22;3952;48.364;16.022;2023-02-15T09:55:53;4.00;99.90
7814;DHT22;3952;48.364;16.022;2023-02-15T09:58:29;4.10;99.90
7814;DHT22;3952;48.364;16.022;2023-02-15T10:01:06;4.10;99.90
7814;DHT22;3952;48.364;16.022;2023-02-15T10:03:45;4.20;99.90
7814;DHT22;3952;48.364;16.022;2023-02-15T10:06:32;4.20;99.90
7814;DHT22;3952;48.364;16.022;2023-02-15T10:09:15;4.10;99.90
7814;DHT22;3952;48.364;16.022;2023-02-15T10:11:56;4.00;99.90
7814;DHT22;3952;48.364;16.022;2023-02-15T10:14:45;4.00;99.90
7814;DHT22;3952;48.364;16.022;2023-02-15T10:17:32;4.00;99.90
7814;DHT22;3952;48.364;16.022;2023-02-15T10:20:16;4.10;99.90
7814;DHT22;3952;48.364;16.022;2023-02-15T10:23:02;4.20;99.90
7814;DHT22;3952;48.364;16.022;2023-02-15T10:25:41;4.30;99.90
7814;DHT22;3952;48.364;16.022;2023-02-15T10:28:16;4.40;99.90
7814;DHT22;3952;48.364;16.022;2023-02-15T10:30:47;4.50;99.90
7814;DHT22;3952;48.364;16.022;2023-02-15T10:33:35;4.50;99.90
7814;DHT22;3952;48.364;16.022;2023-02-15T10:36:17;4.70;99.90
7814;DHT22;3952;48.364;16.022;2023-02-15T10:38:56;4.70;99.90
7814;DHT22;3952;48.364;16.022;2023-02-15T10:41:36;4.80;99.90
7814;DHT22;3952;48.364;16.022;2023-02-15T10:44:32;4.80;99.90
7814;DHT22;3952;48.364;16.022;2023-02-15T10:47:20;4.90;99.90
7814;DHT22;3952;48.364;16.022;2023-02-15T10:50:06;4.90;99.90
7814;DHT22;3952;48.364;16.022;2023-02-15T10:52:46;5.00;99.90
7814;DHT22;3952;48.364;16.022;2023-02-15T10:55:26;5.00;99.90
7814;DHT22;3952;48.364;16.022;2023-02-15T10:58:04;5.00;99.90
7814;DHT22;3952;48.364;16.022;2023-02-15T11:00:38;5.00;99.90
7814;DHT22;3952;48.364;16.022;2023-02-15T11:03:34;5.00;99.90
7814;DHT22;3952;48.364;16.022;2023-02-15T11:06:06;5.10;99.90
7814;DHT22;3952;48.364;16.022;2023-02-15T11:08:41;5.10;99.90
7814;DHT22;3952;48.364;16.022;2023-02-15T11:11:14;5.20;99.90
7814;DHT22;3952;48.364;16.022;2023-02-15T11:13:49;5.20;99.90
7814;DHT22;3952;48.364;16.022;2023-02-15T11:16:22;5.20;99.90
7814;DHT22;3952;48.364;16.022;2023-02-15T11:18:54;5.20;99.90
7814;DHT22;3952;48.364;16.022;2023-02-15T11:21:27;5.30;99.90
7814;DHT22;3952;48.364;16.022;2023-02-15T11:24:00;5.40;99.90
7814;DHT22;3952;48.364;16.022;2023-02-15T11:26:31;5.50;99.90
7814;DHT22;3952;48.364;16.022;2023-02-15T11:29:06;5.50;99.90
7814;DHT22;3952;48.364;16.022;2023-02-15T11:31:42;5.50;99.90
7814;DHT22;3952;48.364;16.022;2023-02-15T11:34:20;5.60;99.90
7814;DHT22;3952;48.364;16.022;2023-02-15T11:36:52;5.60;99.90
7814;DHT22;3952;48.364;16.022;2023-02-15T11:39:23;5.60;99.90
7814;DHT22;3952;48.364;16.022;2023-02-15T11:41:55;5.70;99.90
7814;DHT22;3952;48.364;16.022;2023-02-15T11:44:26;5.60;99.90
7814;DHT22;3952;48.364;16.022;2023-02-15T11:46:54;5.60;99.90
7814;DHT22;3952;48.364;16.022;2023-02-15T11:49:25;5.70;99.90
7814;DHT22;3952;48.364;16.022;2023-02-15T11:52:11;5.80;99.90
7814;DHT22;3952;48.364;16.022;2023-02-15T11:54:42;5.80;99.90
7814;DHT22;3952;48.364;16.022;2023-02-15T11:57:15;5.70;99.90
7814;DHT22;3952;48.364;16.022;2023-02-15T11:59:49;5.70;99.90
7814;DHT22;3952;48.364;16.022;2023-02-15T12:02:19;5.80;99.90
7814;DHT22;3952;48.364;16.022;2023-02-15T12:04:51;5.70;99.90
7814;DHT22;3952;48.364;16.022;2023-02-15T12:07:23;5.80;99.90
7814;DHT22;3952;48.364;16.022;2023-02-15T12:09:58;5.90;99.90
7814;DHT22;3952;48.364;16.022;2023-02-15T12:12:29;6.10;99.90
7814;DHT22;3952;48.364;16.022;2023-02-15T12:14:57;6.30;99.90
7814;DHT22;3952;48.364;16.022;2023-02-15T12:17:27;6.50;99.90
7814;DHT22;3952;48.364;16.022;2023-02-15T12:19:56;6.60;99.90
7814;DHT22;3952;48.364;16.022;2023-02-15T12:22:26;6.70;99.90
7814;DHT22;3952;48.364;16.022;2023-02-15T12:24:58;6.70;99.90
7814;DHT22;3952;48.364;16.022;2023-02-15T12:27:27;6.70;99.90
7814;DHT22;3952;48.364;16.022;2023-02-15T12:29:59;6.70;99.90
7814;DHT22;3952;48.364;16.022;2023-02-15T12:32:31;6.80;99.90
7814;DHT22;3952;48.364;16.022;2023-02-15T12:35:02;6.90;99.90
7814;DHT22;3952;48.364;16.022;2023-02-15T12:37:35;6.90;99.90
7814;DHT22;3952;48.364;16.022;2023-02-15T12:40:19;7.00;99.90
7814;DHT22;3952;48.364;16.022;2023-02-15T12:42:47;7.10;99.90
7814;DHT22;3952;48.364;16.022;2023-02-15T12:45:25;7.10;99.90
7814;DHT22;3952;48.364;16.022;2023-02-15T12:48:15;7.10;99.90
7814;DHT22;3952;48.364;16.022;2023-02-15T12:50:43;7.00;99.90
7814;DHT22;3952;48.364;16.022;2023-02-15T12:53:15;7.00;99.90
7814;DHT22;3952;48.364;16.022;2023-02-15T12:55:54;7.00;99.90
7814;DHT22;3952;48.364;16.022;2023-02-15T12:58:22;6.90;99.90
7814;DHT22;3952;48.364;16.022;2023-02-15T13:01:12;7.00;99.90
7814;DHT22;3952;48.364;16.022;2023-02-15T13:03:55;7.10;99.90
7814;DHT22;3952;48.364;16.022;2023-02-15T13:06:23;7.10;99.90
7814;DHT22;3952;48.364;16.022;2023-02-15T13:08:52;7.10;99.90
7814;DHT22;3952;48.364;16.022;2023-02-15T13:11:26;7.10;99.90
7814;DHT22;3952;48.364;16.022;2023-02-15T13:13:55;7.10;99.90
7814;DHT22;3952;48.364;16.022;2023-02-15T13:16:30;7.10;99.90
7814;DHT22;3952;48.364;16.022;2023-02-15T13:19:03;7.10;99.90
7814;DHT22;3952;48.364;16.022;2023-02-15T13:21:35;7.10;99.90
7814;DHT22;3952;48.364;16.022;2023-02-15T13:24:10;7.10;99.90
7814;DHT22;3952;48.364;16.022;2023-02-15T13:26:41;7.10;99.90
7814;DHT22;3952;48.364;16.022;2023-02-15T13:29:17;7.10;99.90
7814;DHT22;3952;48.364;16.022;2023-02-15T13:31:45;7.10;99.90
7814;DHT22;3952;48.364;16.022;2023-02-15T13:34:17;7.10;99.90
7814;DHT22;3952;48.364;16.022;2023-02-15T13:36:51;7.00;99.90
7814;DHT22;3952;48.364;16.022;2023-02-15T13:39:26;7.00;99.90
7814;DHT22;3952;48.364;16.022;2023-02-15T13:42:02;7.00;99.90
7814;DHT22;3952;48.364;16.022;2023-02-15T13:44:53;7.00;99.90
7814;DHT22;3952;48.364;16.022;2023-02-15T13:47:25;7.00;99.90
7814;DHT22;3952;48.364;16.022;2023-02-15T13:50:10;7.00;99.90
7814;DHT22;3952;48.364;16.022;2023-02-15T13:52:45;7.00;99.90
7814;DHT22;3952;48.364;16.022;2023-02-15T13:55:38;7.00;99.90
7814;DHT22;3952;48.364;16.022;2023-02-15T13:58:26;7.00;99.90
7814;DHT22;3952;48.364;16.022;2023-02-15T14:01:07;6.90;99.90
7814;DHT22;3952;48.364;16.022;2023-02-15T14:03:56;6.80;99.90
7814;DHT22;3952;48.364;16.022;2023-02-15T14:06:46;6.80;99.90
7814;DHT22;3952;48.364;16.022;2023-02-15T14:09:24;6.80;99.90
7814;DHT22;3952;48.364;16.022;2023-02-15T14:11:59;6.90;99.90
7814;DHT22;3952;48.364;16.022;2023-02-15T14:14:48;6.90;99.90
7814;DHT22;3952;48.364;16.022;2023-02-15T14:17:24;6.90;99.90
7814;DHT22;3952;48.364;16.022;2023-02-15T14:19:59;6.90;99.90
7814;DHT22;3952;48.364;16.022;2023-02-15T14:22:31;6.90;99.90
7814;DHT22;3952;48.364;16.022;2023-02-15T14:25:15;6.90;99.90
7814;DHT22;3952;48.364;16.022;2023-02-15T14:27:51;6.90;99.90
7814;DHT22;3952;48.364;16.022;2023-02-15T14:30:26;6.90;99.90
7814;DHT22;3952;48.364;16.022;2023-02-15T14:32:57;6.90;99.90
7814;DHT22;3952;48.364;16.022;2023-02-15T14:35:29;6.90;99.90
7814;DHT22;3952;48.364;16.022;2023-02-15T14:38:04;6.90;99.90
7814;DHT22;3952;48.364;16.022;2023-02-15T14:40:42;6.90;99.90
7814;DHT22;3952;48.364;16.022;2023-02-15T14:43:46;6.80;99.90
7814;DHT22;3952;48.364;16.022;2023-02-15T14:46:23;6.80;99.90
7814;DHT22;3952;48.364;16.022;2023-02-15T14:48:53;6.90;99.90
7814;DHT22;3952;48.364;16.022;2023-02-15T14:52:02;6.90;99.90
7814;DHT22;3952;48.364;16.022;2023-02-15T14:54:53;6.90;99.90
7814;DHT22;3952;48.364;16.022;2023-02-15T14:57:27;6.90;99.90
7814;DHT22;3952;48.364;16.022;2023-02-15T14:59:58;6.90;99.90
7814;DHT22;3952;48.364;16.022;2023-02-15T15:02:42;6.90;99.90
7814;DHT22;3952;48.364;16.022;2023-02-15T15:05:17;6.90;99.90
7814;DHT22;3952;48.364;16.022;2023-02-15T15:07:48;6.90;99.90
7814;DHT22;3952;48.364;16.022;2023-02-15T15:10:40;6.80;99.90
7814;DHT22;3952;48.364;16.022;2023-02-15T15:13:41;6.70;99.90
7814;DHT22;3952;48.364;16.022;2023-02-15T15:16:48;6.70;99.90
7814;DHT22;3952;48.364;16.022;2023-02-15T15:19:59;6.60;99.90
7814;DHT22;3952;48.364;16.022;2023-02-15T15:22:27;6.60;99.90
7814;DHT22;3952;48.364;16.022;2023-02-15T15:24:56;6.50;99.90
7814;DHT22;3952;48.364;16.022;2023-02-15T15:27:45;6.50;99.90
7814;DHT22;3952;48.364;16.022;2023-02-15T15:37:06;6.30;99.90
7814;DHT22;3952;48.364;16.022;2023-02-15T15:43:30;6.20;99.90
7814;DHT22;3952;48.364;16.022;2023-02-15T15:49:09;6.10;99.90
7814;DHT22;3952;48.364;16.022;2023-02-15T15:51:40;6.10;99.90
7814;DHT22;3952;48.364;16.022;2023-02-15T15:54:16;6.10;99.90
7814;DHT22;3952;48.364;16.022;2023-02-15T15:56:48;6.10;99.90
7814;DHT22;3952;48.364;16.022;2023-02-15T15:59:20;6.10;99.90
7814;DHT22;3952;48.364;16.022;2023-02-15T16:01:49;6.00;99.90
7814;DHT22;3952;48.364;16.022;2023-02-15T16:04:24;5.90;99.90
7814;DHT22;3952;48.364;16.022;2023-02-15T16:06:53;5.80;99.90
7814;DHT22;3952;48.364;16.022;2023-02-15T16:09:23;5.80;99.90
7814;DHT22;3952;48.364;16.022;2023-02-15T16:11:52;5.80;99.90
7814;DHT22;3952;48.364;16.022;2023-02-15T16:14:26;5.70;99.90
7814;DHT22;3952;48.364;16.022;2023-02-15T16:16:56;5.60;99.90
7814;DHT22;3952;48.364;16.022;2023-02-15T16:19:26;5.50;99.90
7814;DHT22;3952;48.364;16.022;2023-02-15T16:21:58;5.50;99.90
7814;DHT22;3952;48.364;16.022;2023-02-15T16:27:34;5.40;99.90
7814;DHT22;3952;48.364;16.022;2023-02-15T16:33:10;5.20;99.90
7814;DHT22;3952;48.364;16.022;2023-02-15T16:35:39;5.10;99.90
7814;DHT22;3952;48.364;16.022;2023-02-15T16:38:10;5.10;99.90
7814;DHT22;3952;48.364;16.022;2023-02-15T16:40:50;5.00;99.90
7814;DHT22;3952;48.364;16.022;2023-02-15T16:43:23;4.90;99.90
7814;DHT22;3952;48.364;16.022;2023-02-15T16:45:56;4.80;99.90
7814;DHT22;3952;48.364;16.022;2023-02-15T16:48:26;4.70;99.90
7814;DHT22;3952;48.364;16.022;2023-02-15T16:50:56;4.70;99.90
7814;DHT22;3952;48.364;16.022;2023-02-15T16:53:28;4.60;99.90
7814;DHT22;3952;48.364;16.022;2023-02-15T16:56:00;4.50;99.90
7814;DHT22;3952;48.364;16.022;2023-02-15T16:58:31;4.50;99.90
7814;DHT22;3952;48.364;16.022;2023-02-15T17:01:03;4.40;99.90
7814;DHT22;3952;48.364;16.022;2023-02-15T17:03:41;4.30;99.90
7814;DHT22;3952;48.364;16.022;2023-02-15T17:06:20;4.30;99.90
7814;DHT22;3952;48.364;16.022;2023-02-15T17:08:51;4.20;99.90
7814;DHT22;3952;48.364;16.022;2023-02-15T17:11:41;4.20;99.90
7814;DHT22;3952;48.364;16.022;2023-02-15T17:14:20;4.10;99.90
7814;DHT22;3952;48.364;16.022;2023-02-15T17:16:50;4.10;99.90